This is the latest recevied weather packets stored in our database for station/object N4AN. If no packets are shown the sender has not sent any weather packets the latest 10 day(s).
| Time | Temp. | Humidity | Pressure | Rain* | Wind** | Luminosity | Snow |
|---|---|---|---|---|---|---|---|
| 1787478119 | 30° C | 78% | 1010.1 hPa | 0 mm | - | - | - |
| 1787477819 | 29.44° C | 79% | 1010.1 hPa | 0 mm | - | - | - |
| 1787477519 | 29.44° C | 80% | 1010 hPa | 0 mm | - | - | - |
| 1787477218 | 28.33° C | 81% | 1010 hPa | 0 mm | - | - | - |
| 1787477117 | 28.89° C | 79% | 1009.9 hPa | 0 mm | - | - | - |
| 1787476918 | 28.89° C | 79% | 1009.9 hPa | 0 mm | - | - | - |
| 1787476618 | 29.44° C | 77% | 1010 hPa | 0 mm | - | - | - |
| 1787476317 | 30° C | 76% | 1009.9 hPa | 0 mm | - | - | - |
| 1787476017 | 30° C | 76% | 1010.1 hPa | 0 mm | - | - | - |
| 1787475716 | 30.56° C | 76% | 1010.1 hPa | 0 mm | - | - | - |
| 1787475415 | 30° C | 77% | 1010 hPa | 0 mm | - | - | - |
| 1787475115 | 30° C | 78% | 1010 hPa | 0 mm | - | - | - |
| 1787474514 | 28.33° C | 81% | 1010 hPa | 0 mm | - | - | - |
| 1787474214 | 28.89° C | 81% | 1010 hPa | 0 mm | - | - | - |
| 1787473914 | 28.33° C | 83% | 1010.2 hPa | 0 mm | - | - | - |
| 1787473614 | 27.78° C | 83% | 1010.2 hPa | 0 mm | - | - | - |
| 1787473310 | 27.78° C | 83% | 1010.2 hPa | 0 mm | - | - | - |
| 1787473010 | 27.78° C | 83% | 1010.1 hPa | 0 mm | - | - | - |
| 1787472710 | 28.33° C | 82% | 1010 hPa | 0 mm | - | - | - |
| 1787472409 | 28.33° C | 82% | 1010 hPa | 0 mm | - | - | - |
| 1787472109 | 28.33° C | 82% | 1010.1 hPa | 0 mm | - | - | - |
| 1787471808 | 28.33° C | 82% | 1010.1 hPa | 0 mm | - | - | - |
| 1787471507 | 28.33° C | 82% | 1010.2 hPa | 0 mm | - | - | - |
| 1787471207 | 28.33° C | 81% | 1010.2 hPa | 0 mm | - | - | - |
| 1787470907 | 28.89° C | 80% | 1010.2 hPa | 0 mm | - | - | - |
* Rain latest hour (hover to see other rain measurements)
** Current wind speed in m/s (hover to see current wind gust speed)